Time;durP1;ratioP1;P1;durP2;ratioP2;P2;SDS_P1;SDS_P2;PMS_P1;PMS_P2;Temp;Humidity;BMP_temperature;BMP_pressure;BME280_temperature;BME280_humidity;BME280_pressure;Samples;Min_cycle;Max_cycle;Signal;HPM_P1;HPM_P2
2022/01/26 00:00:29;;;;;;;;;;;2.70;99.90;;;;;;5073987;28;19917;-71
2022/01/26 00:05:51;;;;;;;;;;;2.70;99.90;;;;;;5075061;28;19928;-71
2022/01/26 00:08:22;;;;;;;;;;;2.70;99.90;;;;;;5076106;28;20255;-71
2022/01/26 00:10:48;;;;;;;;;;;2.70;99.90;;;;;;5075184;28;20223;-70
2022/01/26 00:13:13;;;;;;;;;;;2.70;99.90;;;;;;5075382;28;19913;-71
2022/01/26 00:15:39;;;;;;;;;;;2.80;99.90;;;;;;5075229;28;20311;-70
2022/01/26 00:18:04;;;;;;;;;;;2.80;99.90;;;;;;5074081;28;19986;-71
2022/01/26 00:20:39;;;;;;;;;;;2.80;99.90;;;;;;5075134;28;19920;-71
2022/01/26 00:25:58;;;;;;;;;;;2.80;99.90;;;;;;5075293;28;19916;-71
2022/01/26 00:38:38;;;;;;;;;;;2.90;99.90;;;;;;5075070;28;19923;-71
2022/01/26 00:41:10;;;;;;;;;;;2.90;99.90;;;;;;5075627;28;19931;-71
2022/01/26 00:43:37;;;;;;;;;;;2.80;99.90;;;;;;5075014;28;20326;-71
2022/01/26 00:46:04;;;;;;;;;;;2.80;99.90;;;;;;5074934;28;20065;-71
2022/01/26 00:48:32;;;;;;;;;;;2.80;99.90;;;;;;5074926;28;20307;-71
2022/01/26 00:51:00;;;;;;;;;;;2.80;99.90;;;;;;5074793;28;19912;-71
2022/01/26 00:53:32;;;;;;;;;;;2.70;99.90;;;;;;5073486;28;20331;-71
2022/01/26 00:55:58;;;;;;;;;;;2.70;99.90;;;;;;5074495;28;20286;-71
2022/01/26 00:58:24;;;;;;;;;;;2.70;99.90;;;;;;5075504;28;19955;-71
2022/01/26 01:00:49;;;;;;;;;;;2.70;99.90;;;;;;5075029;28;19921;-71
2022/01/26 01:03:16;;;;;;;;;;;2.70;99.90;;;;;;5075222;28;19962;-70
2022/01/26 01:06:20;;;;;;;;;;;2.60;99.90;;;;;;5074418;28;19917;-71
2022/01/26 01:08:34;;;;;;;;;;;2.60;99.90;;;;;;5069897;28;20274;-71
2022/01/26 01:10:59;;;;;;;;;;;2.70;99.90;;;;;;5074605;28;20007;-71
2022/01/26 01:13:44;;;;;;;;;;;2.70;99.90;;;;;;5073742;28;20000;-71
2022/01/26 01:16:13;;;;;;;;;;;2.80;99.90;;;;;;5074722;28;20286;-71
2022/01/26 01:18:48;;;;;;;;;;;2.80;99.90;;;;;;5074793;28;19915;-71
2022/01/26 01:29:19;;;;;;;;;;;2.70;99.90;;;;;;5075149;28;19935;-71
2022/01/26 01:34:12;;;;;;;;;;;2.80;99.90;;;;;;5073785;28;20347;-71
2022/01/26 01:36:41;;;;;;;;;;;2.80;99.90;;;;;;5073531;28;20296;-71
2022/01/26 01:39:09;;;;;;;;;;;2.80;99.90;;;;;;5070771;28;20073;-71
2022/01/26 01:41:36;;;;;;;;;;;2.80;99.90;;;;;;5071464;28;19916;-71
2022/01/26 01:44:03;;;;;;;;;;;2.70;99.90;;;;;;5073848;28;19912;-71
2022/01/26 01:46:29;;;;;;;;;;;2.70;99.90;;;;;;5069444;28;20015;-72
2022/01/26 01:48:55;;;;;;;;;;;2.70;99.90;;;;;;5074115;28;19959;-71
2022/01/26 01:51:27;;;;;;;;;;;2.70;99.90;;;;;;5074216;28;20334;-71
2022/01/26 01:53:52;;;;;;;;;;;2.70;99.90;;;;;;5067060;28;19912;-70
2022/01/26 01:56:22;;;;;;;;;;;2.60;99.90;;;;;;5071915;28;19916;-71
2022/01/26 01:58:48;;;;;;;;;;;2.60;99.90;;;;;;5073167;28;19912;-71
2022/01/26 02:01:14;;;;;;;;;;;2.60;99.90;;;;;;5074030;28;19961;-71
2022/01/26 02:03:39;;;;;;;;;;;2.50;99.90;;;;;;5074456;28;19912;-72
2022/01/26 02:06:05;;;;;;;;;;;2.60;99.90;;;;;;5074250;28;19917;-71
2022/01/26 02:08:30;;;;;;;;;;;2.60;99.90;;;;;;5074257;28;19974;-71
2022/01/26 02:10:56;;;;;;;;;;;2.50;99.90;;;;;;5074194;28;19912;-71
2022/01/26 02:13:30;;;;;;;;;;;2.60;99.90;;;;;;5073288;28;20357;-71
2022/01/26 02:16:10;;;;;;;;;;;2.60;99.90;;;;;;5069961;28;19935;-71
2022/01/26 02:57:00;;;;;;;;;;;2.60;99.90;;;;;;5076131;28;20003;-71
2022/01/26 03:01:58;;;;;;;;;;;2.50;99.90;;;;;;5076744;28;20003;-71
2022/01/26 03:04:41;;;;;;;;;;;2.60;99.90;;;;;;5075486;28;19946;-71
2022/01/26 03:09:43;;;;;;;;;;;2.60;99.90;;;;;;5077713;28;20026;-71
2022/01/26 03:12:10;;;;;;;;;;;2.60;99.90;;;;;;5074840;28;19986;-70
2022/01/26 03:17:25;;;;;;;;;;;2.60;99.90;;;;;;5077159;28;20346;-70
2022/01/26 03:19:54;;;;;;;;;;;2.60;99.90;;;;;;5076671;28;19917;-71
2022/01/26 03:30:55;;;;;;;;;;;2.60;99.90;;;;;;5076879;28;19923;-71
2022/01/26 03:38:08;;;;;;;;;;;2.70;99.90;;;;;;5076977;28;20022;-71
2022/01/26 03:40:37;;;;;;;;;;;2.70;99.90;;;;;;5070990;28;20019;-71
2022/01/26 03:43:03;;;;;;;;;;;2.70;99.90;;;;;;5072129;28;19983;-71
2022/01/26 03:45:28;;;;;;;;;;;2.70;99.90;;;;;;5076443;28;19933;-73
2022/01/26 03:47:55;;;;;;;;;;;2.70;99.90;;;;;;5075264;28;19928;-71
2022/01/26 03:50:21;;;;;;;;;;;2.60;99.90;;;;;;5074587;28;19913;-71
2022/01/26 03:52:47;;;;;;;;;;;2.60;99.90;;;;;;5076556;28;19923;-71
2022/01/26 03:55:12;;;;;;;;;;;2.60;99.90;;;;;;5074842;28;20208;-71
2022/01/26 03:57:38;;;;;;;;;;;2.60;99.90;;;;;;5075931;28;19959;-72
2022/01/26 04:00:07;;;;;;;;;;;2.60;99.90;;;;;;5075592;28;19916;-71
2022/01/26 04:02:33;;;;;;;;;;;2.70;99.90;;;;;;5074159;28;20299;-71
2022/01/26 04:05:01;;;;;;;;;;;2.70;99.90;;;;;;5070191;28;20035;-71
2022/01/26 04:07:27;;;;;;;;;;;2.70;99.90;;;;;;5074647;28;20330;-71
2022/01/26 04:09:59;;;;;;;;;;;2.80;99.90;;;;;;5073130;28;19955;-71
2022/01/26 04:12:24;;;;;;;;;;;2.80;99.90;;;;;;5070923;28;20326;-71
2022/01/26 04:14:56;;;;;;;;;;;2.80;99.90;;;;;;5071558;28;19919;-71
2022/01/26 04:17:22;;;;;;;;;;;2.80;99.90;;;;;;5073772;28;19917;-71
2022/01/26 04:19:54;;;;;;;;;;;2.80;99.90;;;;;;5074332;28;20295;-71
2022/01/26 04:22:27;;;;;;;;;;;2.80;99.90;;;;;;5069209;28;19920;-71
2022/01/26 04:24:55;;;;;;;;;;;2.80;99.90;;;;;;5074147;28;19966;-71
2022/01/26 04:27:33;;;;;;;;;;;2.70;99.90;;;;;;5074897;28;20367;-71
2022/01/26 04:29:59;;;;;;;;;;;2.70;99.90;;;;;;5075673;28;19970;-71
2022/01/26 04:32:25;;;;;;;;;;;2.70;99.90;;;;;;5076064;28;19963;-71
2022/01/26 04:34:50;;;;;;;;;;;2.70;99.90;;;;;;5074002;28;20201;-71
2022/01/26 04:39:54;;;;;;;;;;;2.70;99.90;;;;;;5068096;28;19948;-71
2022/01/26 04:42:41;;;;;;;;;;;2.70;99.90;;;;;;5060053;28;19912;-71
2022/01/26 04:45:09;;;;;;;;;;;2.70;99.90;;;;;;5066514;28;19928;-71
2022/01/26 04:47:34;;;;;;;;;;;2.70;99.90;;;;;;5057447;28;20303;-71
2022/01/26 04:50:00;;;;;;;;;;;2.70;99.90;;;;;;5065916;28;19912;-72
2022/01/26 04:52:26;;;;;;;;;;;2.70;99.90;;;;;;5074342;28;19920;-71
2022/01/26 04:54:51;;;;;;;;;;;2.70;99.90;;;;;;5074141;28;20219;-71
2022/01/26 04:57:17;;;;;;;;;;;2.70;99.90;;;;;;5074303;28;20600;-71
2022/01/26 04:59:43;;;;;;;;;;;2.70;99.90;;;;;;5069940;28;19916;-72
2022/01/26 05:02:08;;;;;;;;;;;2.80;99.90;;;;;;5074479;28;19924;-71
2022/01/26 05:04:34;;;;;;;;;;;2.70;99.90;;;;;;5071041;28;19925;-71
2022/01/26 05:06:59;;;;;;;;;;;2.80;99.90;;;;;;5074421;28;19919;-71
2022/01/26 05:09:25;;;;;;;;;;;2.80;99.90;;;;;;5071672;28;20250;-71
2022/01/26 05:11:53;;;;;;;;;;;2.80;99.90;;;;;;5073016;28;19912;-71
2022/01/26 05:14:19;;;;;;;;;;;2.80;99.90;;;;;;5070038;28;19916;-71
2022/01/26 05:16:44;;;;;;;;;;;2.80;99.90;;;;;;5074837;28;19939;-72
2022/01/26 05:19:10;;;;;;;;;;;2.80;99.90;;;;;;5074215;28;20227;-71
2022/01/26 05:21:36;;;;;;;;;;;2.80;99.90;;;;;;5074948;28;20322;-71
2022/01/26 05:24:01;;;;;;;;;;;2.80;99.90;;;;;;5074878;28;19966;-71
2022/01/26 05:26:28;;;;;;;;;;;2.80;99.90;;;;;;5066689;28;19916;-71
2022/01/26 05:28:53;;;;;;;;;;;2.80;99.90;;;;;;5057020;28;19916;-71
2022/01/26 05:31:19;;;;;;;;;;;2.80;99.90;;;;;;5074717;28;20307;-71
2022/01/26 05:33:45;;;;;;;;;;;2.80;99.90;;;;;;5074088;28;19965;-71
2022/01/26 05:36:10;;;;;;;;;;;2.80;99.90;;;;;;5071930;28;19912;-71
2022/01/26 05:38:36;;;;;;;;;;;2.80;99.90;;;;;;5074376;28;19935;-71
2022/01/26 05:41:04;;;;;;;;;;;2.80;99.90;;;;;;5070764;28;19917;-71
2022/01/26 05:43:30;;;;;;;;;;;2.80;99.90;;;;;;5074442;28;19916;-71
2022/01/26 05:46:01;;;;;;;;;;;2.80;99.90;;;;;;5074221;28;19970;-71
2022/01/26 05:48:26;;;;;;;;;;;2.80;99.90;;;;;;5074262;28;19999;-71
2022/01/26 05:50:54;;;;;;;;;;;2.80;99.90;;;;;;5074089;28;20019;-71
2022/01/26 05:53:22;;;;;;;;;;;2.80;99.90;;;;;;5074736;28;19917;-71
2022/01/26 05:55:49;;;;;;;;;;;2.80;99.90;;;;;;5069591;28;19965;-71
2022/01/26 05:58:14;;;;;;;;;;;2.80;99.90;;;;;;5073661;28;20359;-71
2022/01/26 06:00:40;;;;;;;;;;;2.80;99.90;;;;;;5074146;28;19920;-71
2022/01/26 06:03:05;;;;;;;;;;;2.80;99.90;;;;;;5073591;28;19913;-71
2022/01/26 06:05:31;;;;;;;;;;;2.80;99.90;;;;;;5072806;28;19923;-71
2022/01/26 06:07:56;;;;;;;;;;;2.80;99.90;;;;;;5074242;28;19913;-71
2022/01/26 06:10:22;;;;;;;;;;;2.80;99.90;;;;;;5072660;28;19913;-71
2022/01/26 06:12:47;;;;;;;;;;;2.80;99.90;;;;;;5072650;28;19912;-71
2022/01/26 06:15:13;;;;;;;;;;;2.80;99.90;;;;;;5089044;28;20316;-71
2022/01/26 06:17:38;;;;;;;;;;;2.90;99.90;;;;;;5072626;28;19916;-71
2022/01/26 06:20:04;;;;;;;;;;;2.90;99.90;;;;;;5073985;28;19942;-71
2022/01/26 06:22:30;;;;;;;;;;;2.90;99.90;;;;;;5076572;28;19912;-71
2022/01/26 06:24:57;;;;;;;;;;;2.90;99.90;;;;;;5075657;28;20441;-71
2022/01/26 06:27:23;;;;;;;;;;;2.90;99.90;;;;;;5078400;28;19962;-71
2022/01/26 06:29:48;;;;;;;;;;;2.90;99.90;;;;;;5076629;28;19936;-71
2022/01/26 06:32:16;;;;;;;;;;;2.90;99.90;;;;;;5077947;28;19920;-71
2022/01/26 06:34:42;;;;;;;;;;;2.90;99.90;;;;;;5076645;28;20295;-72
2022/01/26 06:37:08;;;;;;;;;;;2.90;99.90;;;;;;5068072;28;19928;-72
2022/01/26 06:39:34;;;;;;;;;;;3.00;99.90;;;;;;5077361;28;20015;-71
2022/01/26 06:41:59;;;;;;;;;;;2.90;99.90;;;;;;5077370;28;19922;-71
2022/01/26 06:44:32;;;;;;;;;;;3.00;99.90;;;;;;5077676;28;20605;-71
2022/01/26 06:47:20;;;;;;;;;;;3.00;99.90;;;;;;5075883;28;19912;-71
2022/01/26 06:49:46;;;;;;;;;;;3.00;99.90;;;;;;5077063;28;19924;-71
2022/01/26 06:52:11;;;;;;;;;;;3.00;99.90;;;;;;5076157;28;19966;-71
2022/01/26 06:54:37;;;;;;;;;;;3.00;99.90;;;;;;5077360;28;19912;-74
2022/01/26 06:57:03;;;;;;;;;;;3.10;99.90;;;;;;5077353;28;19912;-71
2022/01/26 06:59:28;;;;;;;;;;;3.10;99.90;;;;;;5077289;28;20439;-72
2022/01/26 07:01:54;;;;;;;;;;;3.10;99.90;;;;;;5077537;28;20164;-71
2022/01/26 07:04:19;;;;;;;;;;;3.10;99.90;;;;;;5077181;28;20274;-71
2022/01/26 07:06:45;;;;;;;;;;;3.20;99.90;;;;;;5076129;28;19917;-71
2022/01/26 07:09:10;;;;;;;;;;;3.30;99.90;;;;;;5076653;28;19912;-71
2022/01/26 07:11:36;;;;;;;;;;;3.40;99.90;;;;;;5077015;28;19917;-71
2022/01/26 07:14:06;;;;;;;;;;;3.40;99.90;;;;;;5076619;28;20011;-71
2022/01/26 07:22:00;;;;;;;;;;;3.30;99.90;;;;;;5077214;28;19919;-71
2022/01/26 07:24:26;;;;;;;;;;;3.30;99.90;;;;;;5075056;28;19920;-71
2022/01/26 07:26:53;;;;;;;;;;;3.30;99.90;;;;;;5073913;28;19965;-71
2022/01/26 07:29:22;;;;;;;;;;;3.30;99.90;;;;;;5064663;28;19916;-71
2022/01/26 07:31:48;;;;;;;;;;;3.40;99.90;;;;;;5074672;28;19920;-71
2022/01/26 07:34:15;;;;;;;;;;;3.40;99.90;;;;;;5072044;28;19916;-72
2022/01/26 07:36:41;;;;;;;;;;;3.30;99.90;;;;;;5074319;28;19935;-72
2022/01/26 07:39:11;;;;;;;;;;;3.40;99.90;;;;;;5075286;28;20049;-71
2022/01/26 07:41:37;;;;;;;;;;;3.40;99.90;;;;;;5073059;28;19916;-71
2022/01/26 07:44:02;;;;;;;;;;;3.40;99.90;;;;;;5075205;28;20208;-71
2022/01/26 07:46:28;;;;;;;;;;;3.40;99.90;;;;;;5075570;28;19928;-71
2022/01/26 07:48:54;;;;;;;;;;;3.40;99.90;;;;;;5072687;28;20295;-71
2022/01/26 07:51:20;;;;;;;;;;;3.30;99.90;;;;;;5073756;28;19919;-72
2022/01/26 07:53:45;;;;;;;;;;;3.30;99.90;;;;;;5070035;28;19939;-72
2022/01/26 07:56:11;;;;;;;;;;;3.30;99.90;;;;;;5072425;28;19967;-71
2022/01/26 07:58:37;;;;;;;;;;;3.20;99.90;;;;;;5075035;28;19958;-72
2022/01/26 08:01:02;;;;;;;;;;;3.30;99.90;;;;;;5069862;28;19986;-71
2022/01/26 08:03:33;;;;;;;;;;;3.30;99.90;;;;;;5072814;28;19916;-71
2022/01/26 08:06:02;;;;;;;;;;;3.30;99.90;;;;;;5075594;28;20336;-71
2022/01/26 08:08:28;;;;;;;;;;;3.30;99.90;;;;;;5074237;28;19923;-71
2022/01/26 08:10:58;;;;;;;;;;;3.30;99.90;;;;;;5073475;28;19939;-71
2022/01/26 08:13:23;;;;;;;;;;;3.30;99.90;;;;;;5076208;28;19999;-71
2022/01/26 08:15:49;;;;;;;;;;;3.30;99.90;;;;;;5070737;28;20060;-71
2022/01/26 08:18:14;;;;;;;;;;;3.30;99.90;;;;;;5068084;28;19967;-71
2022/01/26 08:20:40;;;;;;;;;;;3.30;99.90;;;;;;5071070;28;20011;-72
2022/01/26 08:23:06;;;;;;;;;;;3.20;99.90;;;;;;5067822;28;19913;-72
2022/01/26 08:25:32;;;;;;;;;;;3.30;99.90;;;;;;5067357;28;19920;-73
2022/01/26 08:28:09;;;;;;;;;;;3.30;99.90;;;;;;5074941;28;19913;-71
2022/01/26 08:30:38;;;;;;;;;;;3.30;99.90;;;;;;5074922;28;19916;-71
2022/01/26 08:33:05;;;;;;;;;;;3.30;99.90;;;;;;5070861;28;19927;-71
2022/01/26 08:35:31;;;;;;;;;;;3.30;99.90;;;;;;5035680;28;20019;-72
2022/01/26 08:37:57;;;;;;;;;;;3.30;99.90;;;;;;5087027;28;19987;-71
2022/01/26 08:40:22;;;;;;;;;;;3.40;99.90;;;;;;5068177;28;20365;-71
2022/01/26 08:42:48;;;;;;;;;;;3.40;99.90;;;;;;5069292;28;19935;-72
2022/01/26 08:45:14;;;;;;;;;;;3.40;99.90;;;;;;5073977;28;19924;-71
2022/01/26 08:47:39;;;;;;;;;;;3.50;99.90;;;;;;5075164;28;19921;-71
2022/01/26 08:50:06;;;;;;;;;;;3.50;99.90;;;;;;5070352;28;20053;-71
2022/01/26 08:52:31;;;;;;;;;;;3.50;99.90;;;;;;5073905;28;19918;-71
2022/01/26 08:54:57;;;;;;;;;;;3.60;99.90;;;;;;5074037;28;19912;-72
2022/01/26 08:57:22;;;;;;;;;;;3.50;99.90;;;;;;5074967;28;19917;-72
2022/01/26 08:59:48;;;;;;;;;;;3.50;99.90;;;;;;5067398;28;19966;-72
2022/01/26 09:02:14;;;;;;;;;;;3.60;99.90;;;;;;5085387;28;19963;-72
2022/01/26 09:04:39;;;;;;;;;;;3.60;99.90;;;;;;5075246;28;19920;-72
2022/01/26 09:07:05;;;;;;;;;;;3.60;99.90;;;;;;5074221;28;19962;-72
2022/01/26 09:09:41;;;;;;;;;;;3.70;99.90;;;;;;5074111;28;20326;-71
2022/01/26 09:12:08;;;;;;;;;;;3.70;99.90;;;;;;5073254;28;19994;-71
2022/01/26 09:14:34;;;;;;;;;;;3.80;99.90;;;;;;5066616;28;21073;-72
2022/01/26 09:17:02;;;;;;;;;;;3.70;99.90;;;;;;5069766;28;19916;-73
2022/01/26 09:19:29;;;;;;;;;;;3.70;99.90;;;;;;5073317;28;20330;-72
2022/01/26 09:21:55;;;;;;;;;;;3.80;99.90;;;;;;5073523;28;20304;-71
2022/01/26 09:24:21;;;;;;;;;;;3.70;99.90;;;;;;5072225;28;19919;-71
2022/01/26 09:26:47;;;;;;;;;;;3.70;99.90;;;;;;5074608;28;20223;-70
2022/01/26 09:29:12;;;;;;;;;;;3.70;99.90;;;;;;5073695;28;20262;-71
2022/01/26 09:31:38;;;;;;;;;;;3.70;99.90;;;;;;5074955;28;21665;-72
2022/01/26 09:34:04;;;;;;;;;;;3.80;99.90;;;;;;5074990;28;19923;-71
2022/01/26 09:36:30;;;;;;;;;;;3.80;99.90;;;;;;5074369;28;19916;-71
2022/01/26 09:38:56;;;;;;;;;;;3.80;99.90;;;;;;5069853;28;19970;-71
2022/01/26 09:41:22;;;;;;;;;;;3.80;99.90;;;;;;5073655;28;19912;-70
2022/01/26 09:43:48;;;;;;;;;;;3.80;99.90;;;;;;5069215;28;19913;-71
2022/01/26 09:46:17;;;;;;;;;;;3.80;99.90;;;;;;5065222;28;19963;-71
2022/01/26 09:48:44;;;;;;;;;;;3.80;99.90;;;;;;5057635;28;19927;-72
2022/01/26 09:51:13;;;;;;;;;;;3.80;99.90;;;;;;5067845;28;19924;-71
2022/01/26 09:53:39;;;;;;;;;;;3.80;99.90;;;;;;5065955;28;19924;-72
2022/01/26 09:56:04;;;;;;;;;;;3.70;99.90;;;;;;5066572;28;20000;-72
2022/01/26 09:58:30;;;;;;;;;;;3.80;99.90;;;;;;5068791;28;20268;-72
2022/01/26 10:00:56;;;;;;;;;;;3.80;99.90;;;;;;5061313;28;20382;-71
2022/01/26 10:03:24;;;;;;;;;;;3.90;99.90;;;;;;5067657;28;20207;-71
2022/01/26 10:05:50;;;;;;;;;;;3.80;99.90;;;;;;5065711;28;19921;-71
2022/01/26 10:16:02;;;;;;;;;;;3.90;99.90;;;;;;5064165;28;19931;-72
2022/01/26 10:18:30;;;;;;;;;;;4.00;99.90;;;;;;5063950;28;20208;-71
2022/01/26 10:20:57;;;;;;;;;;;4.00;99.90;;;;;;5066613;28;20372;-71
2022/01/26 10:23:23;;;;;;;;;;;4.00;99.90;;;;;;5090060;28;19928;-71
2022/01/26 10:26:01;;;;;;;;;;;4.10;99.90;;;;;;5083033;28;19920;-71
2022/01/26 10:28:38;;;;;;;;;;;4.10;99.90;;;;;;5063282;28;20073;-71
2022/01/26 10:31:11;;;;;;;;;;;4.10;99.90;;;;;;5065281;28;19916;-72
2022/01/26 10:33:37;;;;;;;;;;;4.10;99.90;;;;;;5064588;28;19952;-71
2022/01/26 10:36:02;;;;;;;;;;;4.20;99.90;;;;;;5066120;28;19967;-72
2022/01/26 10:38:28;;;;;;;;;;;4.20;99.90;;;;;;5069843;28;19960;-72
2022/01/26 10:40:53;;;;;;;;;;;4.20;99.90;;;;;;5065643;28;19920;-71
2022/01/26 10:43:19;;;;;;;;;;;4.20;99.90;;;;;;5067707;28;19916;-71
2022/01/26 10:45:58;;;;;;;;;;;4.30;99.90;;;;;;5084776;28;19925;-71
2022/01/26 10:49:05;;;;;;;;;;;4.40;99.90;;;;;;5064586;28;20193;-71
2022/01/26 10:53:48;;;;;;;;;;;4.50;99.90;;;;;;5065599;28;19914;-72
2022/01/26 10:56:13;;;;;;;;;;;4.50;99.90;;;;;;5064989;28;19913;-72
2022/01/26 10:58:39;;;;;;;;;;;4.60;99.90;;;;;;5063871;28;19977;-72
2022/01/26 11:01:06;;;;;;;;;;;4.60;99.90;;;;;;5085968;28;20355;-71
2022/01/26 11:03:33;;;;;;;;;;;4.60;99.90;;;;;;5065206;28;20211;-71
2022/01/26 11:06:06;;;;;;;;;;;4.70;99.90;;;;;;5063891;28;20875;-72
2022/01/26 11:08:36;;;;;;;;;;;4.70;99.90;;;;;;5061198;28;19966;-71
2022/01/26 11:11:01;;;;;;;;;;;4.80;99.90;;;;;;5090822;28;20070;-71
2022/01/26 11:13:28;;;;;;;;;;;4.70;99.90;;;;;;5061977;28;20374;-71
2022/01/26 11:16:05;;;;;;;;;;;4.80;99.90;;;;;;5071727;28;20051;-72
2022/01/26 11:18:33;;;;;;;;;;;4.70;99.90;;;;;;5071589;28;19920;-71
2022/01/26 11:20:59;;;;;;;;;;;4.80;99.90;;;;;;5079278;28;20283;-72
2022/01/26 11:23:42;;;;;;;;;;;4.80;99.90;;;;;;5063692;28;20027;-71
2022/01/26 11:26:21;;;;;;;;;;;4.90;99.90;;;;;;5067410;28;19973;-71
2022/01/26 11:28:47;;;;;;;;;;;4.90;99.90;;;;;;5071441;28;19948;-72
2022/01/26 11:31:15;;;;;;;;;;;4.90;99.90;;;;;;5071796;28;19971;-71
2022/01/26 11:33:40;;;;;;;;;;;4.90;99.90;;;;;;5071115;28;19916;-72
2022/01/26 11:36:07;;;;;;;;;;;4.90;99.90;;;;;;5070309;28;19967;-71
2022/01/26 11:46:30;;;;;;;;;;;4.90;99.90;;;;;;5071032;28;19973;-72
2022/01/26 11:49:00;;;;;;;;;;;5.00;99.90;;;;;;5071930;28;19921;-72
2022/01/26 11:51:25;;;;;;;;;;;4.90;99.90;;;;;;5066298;28;20011;-71
2022/01/26 11:53:51;;;;;;;;;;;5.00;99.90;;;;;;5070029;28;20003;-72
2022/01/26 11:56:20;;;;;;;;;;;5.00;99.90;;;;;;5073157;28;19971;-72
2022/01/26 11:58:47;;;;;;;;;;;5.10;99.90;;;;;;5069730;28;19917;-72
2022/01/26 12:03:47;;;;;;;;;;;5.10;99.90;;;;;;5072705;28;19917;-72
2022/01/26 12:06:20;;;;;;;;;;;5.20;99.90;;;;;;5072328;28;20023;-72
2022/01/26 12:08:46;;;;;;;;;;;5.20;99.90;;;;;;5071229;28;20015;-72
2022/01/26 12:11:16;;;;;;;;;;;5.20;99.90;;;;;;5068579;28;19920;-71
2022/01/26 12:13:43;;;;;;;;;;;5.30;99.90;;;;;;5070996;28;19916;-71
2022/01/26 12:16:13;;;;;;;;;;;5.30;99.90;;;;;;5071950;28;19920;-71
2022/01/26 12:18:52;;;;;;;;;;;5.30;99.90;;;;;;5069633;28;19916;-71
2022/01/26 12:43:49;;;;;;;;;;;5.70;99.90;;;;;;5070859;28;19923;-72
2022/01/26 12:46:19;;;;;;;;;;;5.70;99.90;;;;;;5069879;28;19938;-72
2022/01/26 12:48:50;;;;;;;;;;;5.70;99.90;;;;;;5070135;28;19926;-71
2022/01/26 12:51:15;;;;;;;;;;;5.70;99.90;;;;;;5051861;28;19972;-72
2022/01/26 12:53:41;;;;;;;;;;;5.70;99.90;;;;;;5065523;28;19924;-72
2022/01/26 12:56:08;;;;;;;;;;;5.70;99.90;;;;;;5063283;28;20412;-72
2022/01/26 12:58:41;;;;;;;;;;;5.70;99.90;;;;;;5085431;28;19917;-72
2022/01/26 13:01:11;;;;;;;;;;;5.70;99.90;;;;;;5065049;28;20425;-72
2022/01/26 13:03:38;;;;;;;;;;;5.80;99.90;;;;;;5063213;28;19921;-72
2022/01/26 13:06:04;;;;;;;;;;;6.00;99.90;;;;;;5071210;28;20007;-74
2022/01/26 13:08:39;;;;;;;;;;;5.90;99.90;;;;;;5066213;28;19917;-72
2022/01/26 13:11:04;;;;;;;;;;;5.90;99.90;;;;;;5063291;28;20003;-72
2022/01/26 13:13:32;;;;;;;;;;;5.80;99.90;;;;;;5067068;28;20050;-73
2022/01/26 13:16:10;;;;;;;;;;;5.80;99.90;;;;;;5059381;28;19913;-72
2022/01/26 13:18:58;;;;;;;;;;;5.80;99.90;;;;;;5062060;28;19927;-72
2022/01/26 13:27:03;;;;;;;;;;;5.80;99.90;;;;;;5055055;28;19920;-72
2022/01/26 13:29:43;;;;;;;;;;;5.80;99.90;;;;;;5068186;28;20270;-72
2022/01/26 13:35:13;;;;;;;;;;;5.80;99.90;;;;;;5069059;28;19928;-71
2022/01/26 13:43:34;;;;;;;;;;;5.80;99.90;;;;;;5070593;28;20311;-72
2022/01/26 13:51:15;;;;;;;;;;;6.00;99.90;;;;;;5070881;28;19946;-71
2022/01/26 13:56:15;;;;;;;;;;;6.10;99.90;;;;;;5069950;28;19916;-72
2022/01/26 14:01:16;;;;;;;;;;;6.10;99.90;;;;;;5067988;28;19928;-72
2022/01/26 14:03:42;;;;;;;;;;;6.20;99.90;;;;;;5069221;28;20197;-72
2022/01/26 14:06:09;;;;;;;;;;;6.10;99.90;;;;;;5068198;28;20197;-72
2022/01/26 14:08:35;;;;;;;;;;;6.10;99.90;;;;;;5070395;28;20231;-71
2022/01/26 14:11:01;;;;;;;;;;;6.10;99.90;;;;;;5070157;28;19916;-72
2022/01/26 14:13:27;;;;;;;;;;;6.00;99.90;;;;;;5067932;28;19916;-71
2022/01/26 14:15:56;;;;;;;;;;;6.00;99.90;;;;;;5070085;28;19917;-70
2022/01/26 14:19:14;;;;;;;;;;;6.10;99.90;;;;;;5069357;28;19913;-71
2022/01/26 14:21:22;;;;;;;;;;;6.10;99.90;;;;;;5059723;28;19995;-70
2022/01/26 14:26:15;;;;;;;;;;;6.00;99.90;;;;;;5069379;28;19920;-71
2022/01/26 14:28:40;;;;;;;;;;;6.00;99.90;;;;;;5069638;28;19916;-71
2022/01/26 14:54:29;;;;;;;;;;;6.00;99.90;;;;;;5071742;28;19917;-71
2022/01/26 15:31:19;;;;;;;;;;;5.90;99.90;;;;;;5063884;28;20319;-71
2022/01/26 15:35:50;;;;;;;;;;;5.90;99.90;;;;;;5063030;28;19923;-72
2022/01/26 15:41:19;;;;;;;;;;;5.80;99.90;;;;;;5066414;28;19930;-73
2022/01/26 16:08:13;;;;;;;;;;;5.70;99.90;;;;;;5060188;28;20093;-71
2022/01/26 17:13:17;;;;;;;;;;;5.10;99.90;;;;;;5072502;28;19920;-72
2022/01/26 17:37:46;;;;;;;;;;;4.90;99.90;;;;;;5074185;28;19939;-72
2022/01/26 18:05:00;;;;;;;;;;;4.70;99.90;;;;;;5070651;28;19923;-72
2022/01/26 18:13:03;;;;;;;;;;;4.70;99.90;;;;;;5072432;28;20375;-73
2022/01/26 18:16:00;;;;;;;;;;;4.60;99.90;;;;;;5068448;28;19939;-73
2022/01/26 18:31:55;;;;;;;;;;;4.60;99.90;;;;;;5074982;28;19923;-73
2022/01/26 18:50:34;;;;;;;;;;;4.50;99.90;;;;;;5077929;28;20003;-73
2022/01/26 18:52:59;;;;;;;;;;;4.50;99.90;;;;;;5076101;28;20055;-73
2022/01/26 18:55:25;;;;;;;;;;;4.50;99.90;;;;;;5075924;28;19936;-73
2022/01/26 18:57:51;;;;;;;;;;;4.50;99.90;;;;;;5077884;28;20291;-73
2022/01/26 19:00:17;;;;;;;;;;;4.50;99.90;;;;;;5077792;28;19920;-72
2022/01/26 19:02:42;;;;;;;;;;;4.50;99.90;;;;;;5077379;28;19912;-73
2022/01/26 19:05:09;;;;;;;;;;;4.50;99.90;;;;;;5076615;28;19921;-73
2022/01/26 19:07:35;;;;;;;;;;;4.50;99.90;;;;;;5072995;28;19995;-72
2022/01/26 19:10:02;;;;;;;;;;;4.50;99.90;;;;;;5074136;28;20019;-73
2022/01/26 19:12:31;;;;;;;;;;;4.50;99.90;;;;;;5076741;28;20007;-73
2022/01/26 19:15:02;;;;;;;;;;;4.50;99.90;;;;;;5076609;28;19912;-72
2022/01/26 19:17:41;;;;;;;;;;;4.50;99.90;;;;;;5077000;28;19913;-75
2022/01/26 19:21:01;;;;;;;;;;;4.50;99.90;;;;;;5077181;28;19912;-72
2022/01/26 19:23:06;;;;;;;;;;;4.50;99.90;;;;;;5062743;28;19977;-73
2022/01/26 19:25:37;;;;;;;;;;;4.50;99.90;;;;;;5076817;28;20027;-72
2022/01/26 19:47:01;;;;;;;;;;;4.40;99.90;;;;;;5036865;28;20267;-72
2022/01/26 19:52:32;;;;;;;;;;;4.40;99.90;;;;;;5060307;28;20008;-73
2022/01/26 19:54:31;;;;;;;;;;;4.40;99.90;;;;;;5041960;28;20197;-73
2022/01/26 19:56:56;;;;;;;;;;;4.40;99.90;;;;;;5054539;28;19913;-73
2022/01/26 19:59:22;;;;;;;;;;;4.40;99.90;;;;;;5051979;28;20292;-73
2022/01/26 20:01:47;;;;;;;;;;;4.40;99.90;;;;;;5053194;28;20406;-75
2022/01/26 20:04:13;;;;;;;;;;;4.40;99.90;;;;;;5050563;28;20370;-73
2022/01/26 20:06:39;;;;;;;;;;;4.40;99.90;;;;;;5056598;28;19921;-73
2022/01/26 20:09:14;;;;;;;;;;;4.40;99.90;;;;;;5056335;28;19913;-72
2022/01/26 20:11:51;;;;;;;;;;;4.40;99.90;;;;;;5052280;28;19913;-73
2022/01/26 20:14:22;;;;;;;;;;;4.40;99.90;;;;;;5057449;28;19967;-73
2022/01/26 20:16:47;;;;;;;;;;;4.40;99.90;;;;;;5056481;28;19949;-73
2022/01/26 20:19:13;;;;;;;;;;;4.40;99.90;;;;;;5057383;28;19950;-73
2022/01/26 20:21:39;;;;;;;;;;;4.40;99.90;;;;;;5063560;28;19959;-71
2022/01/26 20:24:05;;;;;;;;;;;4.40;99.90;;;;;;5059513;28;20031;-72
2022/01/26 20:26:30;;;;;;;;;;;4.40;99.90;;;;;;5056498;28;19925;-73
2022/01/26 20:28:56;;;;;;;;;;;4.40;99.90;;;;;;5055982;28;19935;-73
2022/01/26 20:31:24;;;;;;;;;;;4.40;99.90;;;;;;5045079;28;20335;-73
2022/01/26 20:33:51;;;;;;;;;;;4.40;99.90;;;;;;5052580;28;19962;-74
2022/01/26 20:36:17;;;;;;;;;;;4.40;99.90;;;;;;5034587;28;19966;-72
2022/01/26 20:38:43;;;;;;;;;;;4.40;99.90;;;;;;5053742;28;20301;-73
2022/01/26 20:41:08;;;;;;;;;;;4.30;99.90;;;;;;5072110;28;19924;-72
2022/01/26 20:43:34;;;;;;;;;;;4.30;99.90;;;;;;5072619;28;19916;-73
2022/01/26 20:46:05;;;;;;;;;;;4.30;99.90;;;;;;5072060;28;20590;-73
2022/01/26 20:48:32;;;;;;;;;;;4.30;99.90;;;;;;5070266;28;20048;-72
2022/01/26 20:50:58;;;;;;;;;;;4.30;99.90;;;;;;5072395;28;20314;-72
2022/01/26 20:53:23;;;;;;;;;;;4.30;99.90;;;;;;5067629;28;19924;-73
2022/01/26 20:55:49;;;;;;;;;;;4.30;99.90;;;;;;5082215;28;19916;-73
2022/01/26 20:58:15;;;;;;;;;;;4.30;99.90;;;;;;5069919;28;20191;-72
2022/01/26 21:00:40;;;;;;;;;;;4.30;99.90;;;;;;5071090;28;19970;-76
2022/01/26 21:03:06;;;;;;;;;;;4.30;99.90;;;;;;5070647;28;19921;-72
2022/01/26 21:05:31;;;;;;;;;;;4.30;99.90;;;;;;5071657;28;19921;-72
2022/01/26 21:07:59;;;;;;;;;;;4.30;99.90;;;;;;5070593;28;19927;-72
2022/01/26 21:10:25;;;;;;;;;;;4.40;99.90;;;;;;5070798;28;19923;-72
2022/01/26 21:12:51;;;;;;;;;;;4.40;99.90;;;;;;5069822;28;19925;-71
2022/01/26 21:15:17;;;;;;;;;;;4.40;99.90;;;;;;5069015;28;19916;-72
2022/01/26 21:17:43;;;;;;;;;;;4.40;99.90;;;;;;5067768;28;20015;-71
2022/01/26 21:20:12;;;;;;;;;;;4.40;99.90;;;;;;5070568;28;19916;-72
2022/01/26 21:22:38;;;;;;;;;;;4.40;99.90;;;;;;5066777;28;19916;-72
2022/01/26 21:25:04;;;;;;;;;;;4.40;99.90;;;;;;5086131;28;20449;-71
2022/01/26 21:27:30;;;;;;;;;;;4.40;99.90;;;;;;5067921;28;19916;-71
2022/01/26 21:29:55;;;;;;;;;;;4.40;99.90;;;;;;5070716;28;19928;-72
2022/01/26 21:32:21;;;;;;;;;;;4.50;99.90;;;;;;5069500;28;19912;-71